Latest Weather Observations for Central Arnhem Plateau

IDD60801

Issued at 9:01 pm CST Friday 22 May 2015 (issued every 30 minutes, with the page automatically refreshed every 10 minutes)

About weather observations | Map of weather stations | Latest weather observations for NT | Other Formats
Station Details ID: 014909 Name: CENTRAL ARNHEM PLATEAU Lat: -13.33 Lon: 133.09 Height: 416.0 m
Data from the previous 72 hours. | See also: Recent months for locations in Northern Territory
Date/Time
CST
Temp
°C
App
Temp
°C
Dew
Point
Rel
Hum
%
Delta-T
°C
Wind Press
QNH
hPa
Press
MSL
hPa
Rain
since 9 am
mm
Dir
 
Spd
km/h
Gust
km/h
Spd
kts
Gust
kts
22/09:00pm 23.9 22.2 11.2 44 7.2 ESE 11 15 6 8 1018.6 1016.2 -
22/08:30pm 24.5 23.3 11.5 44 7.5 SE 9 13 5 7 1018.5 1016.1 -
22/08:00pm 25.1 23.8 11.3 42 7.9 SE 9 11 5 6 1018.1 1015.7 -
22/07:30pm 25.7 24.4 11.1 40 8.4 SE 9 13 5 7 1017.6 1015.2 -
22/07:00pm 26.3 24.9 10.9 38 8.8 ESE 9 13 5 7 1017.3 1014.9 -
22/06:30pm 27.1 25.1 10.3 35 9.6 SE 11 15 6 8 1017.1 1014.6 -
22/06:00pm 28.0 24.9 10.2 33 10.2 SE 17 24 9 13 1016.9 1014.4 -
22/05:30pm 28.8 25.1 10.0 31 10.8 ESE 20 26 11 14 1016.5 1014.0 -
22/05:00pm 29.1 25.1 10.3 31 10.8 SE 22 32 12 17 1016.1 1013.7 -
22/04:00pm 29.6 25.8 11.2 32 10.8 E 22 30 12 16 1015.6 1013.2 0.0
22/03:30pm 29.2 26.1 12.2 35 10.1 ESE 20 33 11 18 1015.6 1013.2 0.0
22/03:00pm 29.7 26.6 12.2 34 10.4 ESE 20 28 11 15 1015.7 1013.3 0.0
22/02:30pm 30.1 26.7 12.5 34 10.5 ESE 22 32 12 17 1015.9 1013.5 0.0
22/02:00pm 30.0 27.0 12.4 34 10.5 E 20 30 11 16 1016.1 1013.7 0.0
22/01:30pm 28.8 25.2 13.1 38 9.4 ESE 24 33 13 18 1016.7 1014.2 0.0
22/01:00pm 29.6 26.5 14.6 40 9.2 ESE 24 33 13 18 1017.2 1014.7 0.0
22/12:30pm 28.0 25.9 14.6 44 8.2 SE 19 30 10 16 1017.9 1015.5 0.0
22/12:00pm 27.5 24.5 14.8 45 7.8 ESE 24 33 13 18 1018.1 1015.7 0.0
22/11:30am 28.3 25.8 15.2 44 8.1 ESE 22 35 12 19 1018.3 1015.9 0.0
22/11:00am 26.9 23.1 14.6 46 7.5 ESE 28 41 15 22 1018.4 1016.0 0.0
22/10:30am 26.4 23.6 16.3 53 6.3 ESE 26 37 14 20 1018.8 1016.4 0.0
22/10:00am 25.6 22.8 17.3 60 5.3 ESE 28 39 15 21 1019.2 1016.7 0.0
22/09:30am 24.5 23.5 16.5 61 5.0 SE 17 24 9 13 1019.4 1016.9 0.0
22/09:00am 23.4 22.2 16.0 63 4.6 ESE 17 20 9 11 1019.5 1017.1 0.0
22/08:30am 22.6 21.4 16.2 67 3.9 SE 17 22 9 12 1019.4 1016.9 0.0
22/08:00am 21.8 21.2 15.6 68 3.8 SE 13 17 7 9 1019.3 1016.8 0.0
22/07:30am 20.9 20.3 15.7 72 3.2 SE 13 17 7 9 1019.0 1016.5 0.0
22/07:00am 19.7 20.0 14.9 74 2.9 ESE 7 11 4 6 1018.4 1016.0 0.0
22/06:30am 19.0 19.1 13.8 72 3.0 ESE 6 7 3 4 1018.1 1015.7 0.0
22/06:00am 18.9 19.6 13.5 71 3.1 ESE 2 7 1 4 1017.9 1015.5 0.0
22/05:30am 20.0 21.2 13.7 67 3.7 CALM 0 0 0 0 1017.9 1015.5 0.0
22/05:00am 21.1 22.3 13.8 63 4.3 CALM 0 0 0 0 1017.8 1015.4 0.0
22/04:30am 22.0 23.3 14.1 61 4.7 CALM 0 0 0 0 1017.6 1015.2 0.0
22/04:00am 21.8 21.9 13.9 61 4.7 ENE 6 7 3 4 1017.6 1015.2 0.0
22/03:30am 21.9 22.0 14.0 61 4.7 ENE 6 9 3 5 1017.5 1015.1 0.0
22/03:00am 22.1 22.2 14.0 60 4.8 ENE 6 7 3 4 1017.4 1015.0 0.0
22/02:30am 21.8 23.0 13.7 60 4.8 CALM 0 0 0 0 1017.5 1015.1 0.0
22/02:00am 22.1 22.1 13.7 59 5.0 ENE 6 7 3 4 1017.8 1015.4 0.0
22/01:30am 22.4 22.2 13.7 58 5.1 ENE 7 9 4 5 1017.9 1015.5 0.0
22/01:00am 23.7 23.1 13.6 53 6.0 ENE 9 11 5 6 1018.1 1015.7 0.0
22/12:30am 23.9 24.0 14.0 54 5.9 E 6 9 3 5 1018.2 1015.8 0.0
22/12:00am 23.7 24.8 13.6 53 6.0 CALM 0 0 0 0 1018.2 1015.8 0.0
 
Date/Time
CST
Temp
°C
App
Temp
°C
Dew
Point
Rel
Hum
%
Delta-T
°C
Wind Press
QNH
hPa
Press
MSL
hPa
Rain
since 9 am
mm
Dir
 
Spd
km/h
Gust
km/h
Spd
kts
Gust
kts
21/11:30pm 25.3 25.4 13.8 49 6.9 E 6 9 3 5 1018.4 1016.0 0.0
21/11:00pm 25.7 24.9 13.9 48 7.1 ENE 11 13 6 7 1018.4 1016.0 0.0
21/10:30pm 25.5 25.8 14.6 51 6.6 E 6 7 3 4 1018.3 1015.9 0.0
21/10:00pm 25.7 25.3 14.2 49 7.0 ESE 9 13 5 7 1018.1 1015.7 0.0
21/09:30pm 26.4 26.5 13.9 46 7.5 ESE 6 9 3 5 1017.9 1015.5 0.0
21/09:00pm 26.8 26.7 13.9 45 7.8 ESE 7 9 4 5 1017.6 1015.2 0.0
21/08:30pm 26.2 26.2 13.7 46 7.5 ESE 6 7 3 4 1017.4 1015.0 0.0
21/08:00pm 27.7 27.7 13.6 42 8.5 SSE 6 7 3 4 1017.0 1014.5 0.0
21/07:30pm 26.8 27.7 12.8 42 8.3 CALM 0 0 0 0 1016.7 1014.2 0.0
21/07:00pm 28.3 27.9 13.0 39 9.2 ESE 7 7 4 4 1016.5 1014.0 0.0
21/06:30pm 28.8 27.9 12.7 37 9.6 ESE 9 15 5 8 1016.2 1013.8 0.0
21/06:00pm 29.8 28.1 12.3 34 10.4 ESE 13 19 7 10 1016.0 1013.6 0.0
21/05:30pm 30.7 28.5 12.1 32 11.1 SE 15 24 8 13 1015.7 1013.3 0.0
21/05:00pm 30.6 28.4 12.0 32 11.1 ESE 15 24 8 13 1015.5 1013.1 0.0
21/04:30pm 30.7 28.7 11.6 31 11.3 SE 13 19 7 10 1015.2 1012.8 0.0
21/04:00pm 31.0 27.8 11.4 30 11.6 ESE 19 26 10 14 1015.1 1012.7 0.0
21/03:30pm 30.9 28.2 11.8 31 11.3 ESE 17 24 9 13 1015.3 1012.9 0.0
21/03:00pm 31.2 28.0 11.1 29 11.8 ESE 19 26 10 14 1015.5 1013.1 0.0
21/02:30pm 30.9 27.7 11.8 31 11.3 E 20 32 11 17 1015.9 1013.5 0.0
21/02:00pm 30.8 27.7 12.2 32 11.1 E 20 30 11 16 1016.2 1013.8 0.0
21/01:30pm 30.5 27.3 11.9 31 11.0 E 20 30 11 16 1016.7 1014.2 0.0
21/01:00pm 31.5 28.6 12.8 32 11.3 ENE 20 32 11 17 1017.1 1014.6 0.0
21/12:30pm 30.0 26.7 12.9 35 10.3 ENE 22 32 12 17 1017.6 1015.2 0.0
21/12:00pm 29.8 27.5 14.0 38 9.7 E 19 28 10 15 1018.0 1015.6 0.0
21/11:30am 29.1 27.3 14.5 41 9.0 ENE 17 24 9 13 1018.3 1015.9 0.0
21/11:00am 28.5 27.2 14.7 43 8.5 E 15 20 8 11 1018.6 1016.2 0.0
21/10:30am 27.4 27.0 16.1 50 7.1 E 13 19 7 10 1019.0 1016.5 0.0
21/10:00am 26.4 26.9 16.6 55 6.2 NE 9 15 5 8 1019.1 1016.6 0.0
21/09:30am 25.6 26.8 18.3 64 4.7 ENE 9 15 5 8 1019.1 1016.6 0.0
21/09:00am 24.6 25.5 18.5 69 3.9 ENE 11 17 6 9 1019.1 1016.6 0.0
21/08:30am 23.0 24.3 17.0 69 3.7 NE 6 9 3 5 1019.0 1016.5 0.0
21/08:00am 22.0 23.8 15.6 67 3.9 CALM 0 0 0 0 1018.7 1016.3 0.0
21/07:30am 19.6 20.8 14.8 74 2.9 ENE 2 6 1 3 1018.5 1016.1 0.0
21/07:00am 19.1 20.5 14.4 74 2.8 CALM 0 0 0 0 1018.1 1015.7 0.0
21/06:30am 20.3 21.9 14.9 71 3.2 CALM 0 0 0 0 1017.8 1015.4 0.0
21/06:00am 20.8 22.4 14.9 69 3.5 CALM 0 0 0 0 1017.7 1015.3 0.0
21/05:30am 19.9 21.4 14.7 72 3.1 CALM 0 0 0 0 1017.6 1015.2 0.0
21/05:00am 19.6 20.9 14.0 70 3.3 CALM 0 0 0 0 1017.3 1014.9 0.0
21/04:30am 19.6 20.0 13.8 69 3.4 ENE 4 6 2 3 1017.2 1014.7 0.0
21/04:00am 21.4 21.7 14.6 65 4.1 NW 6 7 3 4 1017.0 1014.5 0.0
21/03:30am 21.9 22.2 15.0 65 4.2 NNW 7 9 4 5 1017.0 1014.5 0.0
21/03:00am 21.5 21.0 13.9 62 4.5 NW 9 13 5 7 1017.0 1014.5 0.0
21/02:30am 21.4 21.8 12.5 57 5.1 NNE 2 6 1 3 1017.4 1015.0 0.0
21/02:00am 22.2 21.7 12.7 55 5.5 ENE 7 11 4 6 1017.7 1015.3 0.0
21/01:30am 22.6 22.1 12.8 54 5.7 NE 7 11 4 6 1017.9 1015.5 0.0
21/01:00am 21.4 21.2 13.1 59 4.8 N 6 9 3 5 1018.1 1015.7 0.0
21/12:30am 20.8 20.6 13.0 61 4.5 ENE 6 11 3 6 1017.6 1015.2 0.0
21/12:00am 20.9 21.7 12.6 59 4.8 CALM 0 0 0 0 1017.5 1015.1 0.0
 
Date/Time
CST
Temp
°C
App
Temp
°C
Dew
Point
Rel
Hum
%
Delta-T
°C
Wind Press
QNH
hPa
Press
MSL
hPa
Rain
since 9 am
mm
Dir
 
Spd
km/h
Gust
km/h
Spd
kts
Gust
kts
20/11:30pm 22.9 23.5 11.9 50 6.3 CALM 0 0 0 0 1017.6 1015.2 0.0
20/11:00pm 23.0 23.6 12.0 50 6.3 CALM 0 0 0 0 1017.7 1015.3 0.0
20/10:30pm 23.1 23.8 12.1 50 6.3 CALM 0 0 0 0 1017.7 1015.3 0.0
20/10:00pm 23.5 24.2 12.2 49 6.5 CALM 0 0 0 0 1017.7 1015.3 0.0
20/09:30pm 24.1 24.8 12.1 47 6.9 CALM 0 0 0 0 1017.7 1015.3 0.0
20/09:00pm 24.9 24.6 12.8 47 7.1 E 6 9 3 5 1017.6 1015.2 0.0
20/08:30pm 25.3 26.1 12.5 45 7.5 CALM 0 6 0 3 1017.4 1015.0 0.0
20/08:00pm 26.1 26.7 11.8 41 8.3 CALM 0 6 0 3 1017.1 1014.6 0.0
20/07:30pm 27.7 26.7 10.9 35 9.7 ESE 7 7 4 4 1016.7 1014.2 0.0
20/07:00pm 27.6 26.8 11.2 36 9.5 E 6 9 3 5 1016.3 1013.9 0.0
20/06:30pm 29.1 28.0 10.7 32 10.7 E 7 11 4 6 1016.0 1013.6 0.0
20/06:00pm 30.0 28.1 10.5 30 11.3 SE 11 15 6 8 1015.7 1013.3 0.0
20/05:30pm 30.8 29.0 10.7 29 11.7 ESE 11 17 6 9 1015.3 1012.9 0.0
20/05:00pm 31.3 28.7 10.6 28 12.1 SE 15 22 8 12 1014.9 1012.4 0.0
20/04:30pm 31.6 29.8 10.9 28 12.2 SE 11 17 6 9 1014.7 1012.2 0.0
20/04:00pm 31.8 29.9 10.5 27 12.5 E 11 24 6 13 1014.6 1012.1 0.0
20/03:30pm 32.0 29.4 10.7 27 12.5 ESE 15 24 8 13 1014.6 1012.1 0.0
20/03:00pm 31.7 30.2 10.4 27 12.4 ENE 9 17 5 9 1014.7 1012.2 0.0
20/02:30pm 31.6 29.1 10.9 28 12.2 SE 15 20 8 11 1015.1 1012.7 0.0
20/02:00pm 31.5 28.8 10.2 27 12.4 E 15 24 8 13 1015.3 1012.9 0.0
20/01:30pm 30.9 29.0 11.8 31 11.3 E 13 20 7 11 1015.8 1013.4 0.0
20/01:00pm 31.1 29.7 13.4 34 10.8 ENE 13 24 7 13 1016.2 1013.8 0.0
20/12:30pm 30.1 29.4 14.2 38 9.8 SE 11 17 6 9 1016.9 1014.4 0.0
20/12:00pm 29.6 28.3 13.8 38 9.6 E 13 20 7 11 1017.2 1014.7 0.0
20/11:30am 29.0 28.3 14.4 41 9.0 E 11 20 6 11 1017.6 1015.2 0.0
20/11:00am 28.1 29.0 16.1 48 7.5 ENE 6 11 3 6 1018.1 1015.7 0.0
20/10:30am 27.0 27.3 16.0 51 6.9 NE 9 17 5 9 1018.2 1015.8 0.0
20/10:00am 26.7 27.3 16.9 55 6.2 NE 9 15 5 8 1018.6 1016.2 0.0
20/09:30am 26.5 27.3 17.3 57 5.8 NE 9 15 5 8 1018.6 1016.2 0.0
20/09:00am 25.4 26.0 17.6 62 5.0 NNE 11 17 6 9 1018.3 1015.9 0.0
20/08:30am 24.4 26.0 18.3 69 3.9 NNE 7 9 4 5 1018.0 1015.6 0.0
20/08:00am 23.8 26.5 17.8 69 3.8 CALM 0 0 0 0 1017.7 1015.3 0.0
20/07:30am 21.3 23.6 16.7 75 2.8 CALM 0 0 0 0 1017.4 1015.0 0.0
20/07:00am 20.1 22.0 15.7 76 2.7 CALM 0 0 0 0 1017.1 1014.6 0.0
20/06:30am 20.6 22.6 16.0 75 2.8 CALM 0 0 0 0 1016.9 1014.4 0.0
20/06:00am 21.0 21.8 16.4 75 2.8 NNW 7 7 4 4 1016.7 1014.2 0.0
20/05:30am 21.1 21.9 16.3 74 2.9 NNW 7 9 4 5 1016.6 1014.1 0.0
20/05:00am 21.3 22.3 16.3 73 3.1 NW 6 7 3 4 1016.5 1014.0 0.0
20/04:30am 21.7 22.6 16.2 71 3.4 NNE 6 7 3 4 1016.2 1013.8 0.0
20/04:00am 21.6 22.4 15.9 70 3.5 N 6 7 3 4 1016.3 1013.9 0.0
20/03:30am 22.0 23.3 16.1 69 3.6 NNW 4 7 2 4 1016.3 1013.9 0.0
20/03:00am 21.9 23.0 15.5 67 3.9 N 4 6 2 3 1016.3 1013.9 0.0
20/02:30am 22.4 23.0 15.7 66 4.1 NE 7 9 4 5 1016.3 1013.9 0.0
20/02:00am 23.1 23.0 15.9 64 4.4 ENE 11 15 6 8 1016.6 1014.1 0.0
20/01:30am 23.1 23.0 15.9 64 4.4 NE 11 15 6 8 1016.7 1014.2 0.0
20/01:00am 23.3 23.7 15.4 61 4.8 ENE 7 11 4 6 1017.0 1014.5 0.0
20/12:30am 23.0 23.0 15.1 61 4.8 E 9 13 5 7 1017.0 1014.5 0.0
20/12:00am 22.6 21.1 14.2 59 5.0 ESE 15 20 8 11 1016.9 1014.4 0.0
 
Date/Time
CST
Temp
°C
App
Temp
°C
Dew
Point
Rel
Hum
%
Delta-T
°C
Wind Press
QNH
hPa
Press
MSL
hPa
Rain
since 9 am
mm
Dir
 
Spd
km/h
Gust
km/h
Spd
kts
Gust
kts
19/11:30pm 23.4 24.3 14.1 56 5.6 SE 2 6 1 3 1016.6 1014.1 0.0
19/11:00pm 23.6 25.0 14.3 56 5.6 CALM 0 0 0 0 1016.6 1014.1 0.0
19/10:30pm 23.5 24.7 13.9 55 5.7 CALM 0 0 0 0 1016.6 1014.1 0.0
19/10:00pm 23.7 24.5 13.8 53 5.9 ESE 2 6 1 3 1016.5 1014.0 0.0
19/09:30pm 24.4 25.6 13.9 52 6.3 CALM 0 6 0 3 1016.2 1013.8 0.0

Other Formats:

Comma delimited format used in spreadsheet applications
http://www.bom.gov.au/fwo/IDD60801/IDD60801.94141.axf

JavaScript Object Notation format (JSON) in row-major order
http://www.bom.gov.au/fwo/IDD60801/IDD60801.94141.json